sensor_id;sensor_type;location;lat;lon;timestamp;pressure;altitude;pressure_sealevel;temperature;humidity
29935;BME280;19905;53.370;-6.314;2022-07-04T00:02:10;101684.63;;;12.31;100.00
29935;BME280;19905;53.370;-6.314;2022-07-04T00:04:39;101687.28;;;12.31;100.00
29935;BME280;19905;53.370;-6.314;2022-07-04T00:07:09;101677.41;;;12.20;100.00
29935;BME280;19905;53.370;-6.314;2022-07-04T00:09:38;101671.91;;;12.24;100.00
29935;BME280;19905;53.370;-6.314;2022-07-04T00:12:07;101679.94;;;12.22;100.00
29935;BME280;19905;53.370;-6.314;2022-07-04T00:14:36;101668.69;;;12.18;100.00
29935;BME280;19905;53.370;-6.314;2022-07-04T00:17:10;101666.16;;;12.17;100.00
29935;BME280;19905;53.370;-6.314;2022-07-04T00:19:39;101674.00;;;12.06;100.00
29935;BME280;19905;53.370;-6.314;2022-07-04T00:22:07;101677.03;;;12.00;100.00
29935;BME280;19905;53.370;-6.314;2022-07-04T00:24:36;101672.59;;;12.00;100.00
29935;BME280;19905;53.370;-6.314;2022-07-04T00:27:05;101669.31;;;12.09;100.00
29935;BME280;19905;53.370;-6.314;2022-07-04T00:29:33;101671.31;;;11.93;100.00
29935;BME280;19905;53.370;-6.314;2022-07-04T00:32:02;101674.94;;;11.92;100.00
29935;BME280;19905;53.370;-6.314;2022-07-04T00:34:33;101676.31;;;11.98;100.00
29935;BME280;19905;53.370;-6.314;2022-07-04T00:37:02;101678.19;;;11.95;100.00
29935;BME280;19905;53.370;-6.314;2022-07-04T00:39:31;101672.28;;;11.92;100.00
29935;BME280;19905;53.370;-6.314;2022-07-04T00:42:07;101672.59;;;12.00;100.00
29935;BME280;19905;53.370;-6.314;2022-07-04T00:44:36;101670.16;;;11.97;100.00
29935;BME280;19905;53.370;-6.314;2022-07-04T00:47:06;101672.72;;;11.99;100.00
29935;BME280;19905;53.370;-6.314;2022-07-04T00:49:38;101669.63;;;12.05;100.00
29935;BME280;19905;53.370;-6.314;2022-07-04T00:52:07;101677.69;;;12.03;100.00
29935;BME280;19905;53.370;-6.314;2022-07-04T00:54:35;101671.78;;;12.12;100.00
29935;BME280;19905;53.370;-6.314;2022-07-04T00:57:04;101671.13;;;12.09;100.00
29935;BME280;19905;53.370;-6.314;2022-07-04T00:59:33;101668.59;;;12.07;100.00
29935;BME280;19905;53.370;-6.314;2022-07-04T01:02:03;101660.16;;;12.15;100.00
29935;BME280;19905;53.370;-6.314;2022-07-04T01:04:31;101661.63;;;12.06;100.00
29935;BME280;19905;53.370;-6.314;2022-07-04T01:07:01;101671.91;;;12.11;100.00
29935;BME280;19905;53.370;-6.314;2022-07-04T01:09:30;101671.25;;;12.07;100.00
29935;BME280;19905;53.370;-6.314;2022-07-04T01:11:59;101663.09;;;12.10;100.00
29935;BME280;19905;53.370;-6.314;2022-07-04T01:14:27;101665.94;;;12.07;100.00
29935;BME280;19905;53.370;-6.314;2022-07-04T01:16:56;101658.09;;;12.18;100.00
29935;BME280;19905;53.370;-6.314;2022-07-04T01:19:25;101660.56;;;12.21;100.00
29935;BME280;19905;53.370;-6.314;2022-07-04T01:21:54;101664.16;;;12.20;100.00
29935;BME280;19905;53.370;-6.314;2022-07-04T01:24:23;101664.91;;;12.23;100.00
29935;BME280;19905;53.370;-6.314;2022-07-04T01:26:51;101664.16;;;12.20;100.00
29935;BME280;19905;53.370;-6.314;2022-07-04T01:29:22;101662.03;;;12.13;100.00
29935;BME280;19905;53.370;-6.314;2022-07-04T01:31:53;101661.72;;;12.17;100.00
29935;BME280;19905;53.370;-6.314;2022-07-04T01:34:22;101653.25;;;12.12;100.00
29935;BME280;19905;53.370;-6.314;2022-07-04T01:36:51;101652.19;;;12.15;100.00
29935;BME280;19905;53.370;-6.314;2022-07-04T01:39:23;101654.72;;;12.16;100.00
29935;BME280;19905;53.370;-6.314;2022-07-04T01:41:52;101652.19;;;12.15;100.00
29935;BME280;19905;53.370;-6.314;2022-07-04T01:44:22;101645.50;;;12.22;100.00
29935;BME280;19905;53.370;-6.314;2022-07-04T01:46:50;101650.78;;;12.09;100.00
29935;BME280;19905;53.370;-6.314;2022-07-04T01:49:19;101651.44;;;12.13;100.00
29935;BME280;19905;53.370;-6.314;2022-07-04T01:51:49;101651.66;;;12.10;100.00
29935;BME280;19905;53.370;-6.314;2022-07-04T01:54:19;101649.25;;;12.19;100.00
29935;BME280;19905;53.370;-6.314;2022-07-04T01:56:49;101644.34;;;12.13;100.00
29935;BME280;19905;53.370;-6.314;2022-07-04T01:59:18;101639.69;;;12.17;100.00
29935;BME280;19905;53.370;-6.314;2022-07-04T02:02:07;101639.59;;;12.06;100.00
29935;BME280;19905;53.370;-6.314;2022-07-04T02:04:34;101635.78;;;12.10;100.00
29935;BME280;19905;53.370;-6.314;2022-07-04T02:07:03;101642.75;;;11.98;100.00
29935;BME280;19905;53.370;-6.314;2022-07-04T02:09:32;101641.88;;;11.98;100.00
29935;BME280;19905;53.370;-6.314;2022-07-04T02:12:02;101636.13;;;11.91;100.00
29935;BME280;19905;53.370;-6.314;2022-07-04T02:14:48;101637.03;;;11.91;100.00
29935;BME280;19905;53.370;-6.314;2022-07-04T02:17:17;101629.38;;;11.87;100.00
29935;BME280;19905;53.370;-6.314;2022-07-04T02:19:46;101637.22;;;11.88;100.00
29935;BME280;19905;53.370;-6.314;2022-07-04T02:22:15;101635.53;;;11.87;100.00
29935;BME280;19905;53.370;-6.314;2022-07-04T02:24:44;101635.31;;;11.90;100.00
29935;BME280;19905;53.370;-6.314;2022-07-04T02:27:15;101635.31;;;11.90;100.00
29935;BME280;19905;53.370;-6.314;2022-07-04T02:29:43;101623.34;;;11.98;100.00
29935;BME280;19905;53.370;-6.314;2022-07-04T02:32:12;101619.34;;;11.92;100.00
29935;BME280;19905;53.370;-6.314;2022-07-04T02:34:41;101623.34;;;11.98;100.00
29935;BME280;19905;53.370;-6.314;2022-07-04T02:37:10;101621.66;;;11.97;100.00
29935;BME280;19905;53.370;-6.314;2022-07-04T02:39:38;101619.03;;;11.97;100.00
29935;BME280;19905;53.370;-6.314;2022-07-04T02:42:08;101613.91;;;11.93;100.00
29935;BME280;19905;53.370;-6.314;2022-07-04T02:44:39;101617.09;;;11.99;100.00
29935;BME280;19905;53.370;-6.314;2022-07-04T02:47:09;101607.47;;;11.98;100.00
29935;BME280;19905;53.370;-6.314;2022-07-04T02:49:38;101615.59;;;11.94;100.00
29935;BME280;19905;53.370;-6.314;2022-07-04T02:52:09;101602.69;;;11.90;100.00
29935;BME280;19905;53.370;-6.314;2022-07-04T02:54:39;101613.00;;;11.80;100.00
29935;BME280;19905;53.370;-6.314;2022-07-04T02:57:09;101624.75;;;11.76;100.00
29935;BME280;19905;53.370;-6.314;2022-07-04T02:59:40;101607.06;;;11.64;100.00
29935;BME280;19905;53.370;-6.314;2022-07-04T03:02:10;101613.69;;;11.57;100.00
29935;BME280;19905;53.370;-6.314;2022-07-04T03:04:39;101616.00;;;11.49;100.00
29935;BME280;19905;53.370;-6.314;2022-07-04T03:07:11;101606.47;;;11.46;100.00
29935;BME280;19905;53.370;-6.314;2022-07-04T03:09:39;101621.69;;;11.42;100.00
29935;BME280;19905;53.370;-6.314;2022-07-04T03:12:09;101625.94;;;11.45;100.00
29935;BME280;19905;53.370;-6.314;2022-07-04T03:14:39;101626.16;;;11.42;100.00
29935;BME280;19905;53.370;-6.314;2022-07-04T03:17:07;101626.88;;;11.44;100.00
29935;BME280;19905;53.370;-6.314;2022-07-04T03:19:36;101617.06;;;11.46;100.00
29935;BME280;19905;53.370;-6.314;2022-07-04T03:22:04;101615.25;;;11.47;100.00
29935;BME280;19905;53.370;-6.314;2022-07-04T03:24:33;101622.25;;;11.48;100.00
29935;BME280;19905;53.370;-6.314;2022-07-04T03:27:02;101621.09;;;11.52;100.00
29935;BME280;19905;53.370;-6.314;2022-07-04T03:29:31;101622.69;;;11.54;100.00
29935;BME280;19905;53.370;-6.314;2022-07-04T03:32:01;101617.31;;;11.56;100.00
29935;BME280;19905;53.370;-6.314;2022-07-04T03:34:29;101621.53;;;11.58;100.00
29935;BME280;19905;53.370;-6.314;2022-07-04T03:36:58;101620.38;;;11.62;100.00
29935;BME280;19905;53.370;-6.314;2022-07-04T03:39:26;101623.88;;;11.63;100.00
29935;BME280;19905;53.370;-6.314;2022-07-04T03:41:55;101622.06;;;11.63;100.00
29935;BME280;19905;53.370;-6.314;2022-07-04T03:44:24;101616.88;;;11.62;100.00
29935;BME280;19905;53.370;-6.314;2022-07-04T03:46:53;101619.66;;;11.60;100.00
29935;BME280;19905;53.370;-6.314;2022-07-04T03:49:24;101622.94;;;11.64;100.00
29935;BME280;19905;53.370;-6.314;2022-07-04T03:51:52;101620.00;;;11.68;100.00
29935;BME280;19905;53.370;-6.314;2022-07-04T03:54:21;101615.00;;;11.64;100.00
29935;BME280;19905;53.370;-6.314;2022-07-04T03:56:49;101620.84;;;11.69;100.00
29935;BME280;19905;53.370;-6.314;2022-07-04T03:59:21;101628.13;;;11.65;100.00
29935;BME280;19905;53.370;-6.314;2022-07-04T04:01:50;101623.56;;;11.67;100.00
29935;BME280;19905;53.370;-6.314;2022-07-04T04:04:20;101623.78;;;11.64;100.00
29935;BME280;19905;53.370;-6.314;2022-07-04T04:07:09;101620.50;;;11.61;100.00
29935;BME280;19905;53.370;-6.314;2022-07-04T04:09:42;101619.69;;;11.73;100.00
29935;BME280;19905;53.370;-6.314;2022-07-04T04:12:11;101616.59;;;11.66;100.00
29935;BME280;19905;53.370;-6.314;2022-07-04T04:14:40;101622.63;;;11.68;100.00
29935;BME280;19905;53.370;-6.314;2022-07-04T04:17:09;101633.63;;;11.62;100.00
29935;BME280;19905;53.370;-6.314;2022-07-04T04:19:37;101625.66;;;11.62;100.00
29935;BME280;19905;53.370;-6.314;2022-07-04T04:22:06;101625.59;;;11.64;100.00
29935;BME280;19905;53.370;-6.314;2022-07-04T04:24:36;101627.38;;;11.63;100.00
29935;BME280;19905;53.370;-6.314;2022-07-04T04:27:06;101615.19;;;11.61;100.00
29935;BME280;19905;53.370;-6.314;2022-07-04T04:29:34;101622.84;;;11.65;100.00
29935;BME280;19905;53.370;-6.314;2022-07-04T04:32:03;101623.13;;;11.61;100.00
29935;BME280;19905;53.370;-6.314;2022-07-04T04:34:32;101628.63;;;11.58;100.00
29935;BME280;19905;53.370;-6.314;2022-07-04T04:37:02;101621.63;;;11.57;100.00
29935;BME280;19905;53.370;-6.314;2022-07-04T04:39:31;101620.50;;;11.61;100.00
29935;BME280;19905;53.370;-6.314;2022-07-04T04:42:02;101630.88;;;11.64;100.00
29935;BME280;19905;53.370;-6.314;2022-07-04T04:44:31;101622.94;;;11.64;100.00
29935;BME280;19905;53.370;-6.314;2022-07-04T04:47:00;101619.41;;;11.63;100.00
29935;BME280;19905;53.370;-6.314;2022-07-04T04:49:29;101622.53;;;11.70;100.00
29935;BME280;19905;53.370;-6.314;2022-07-04T04:51:57;101619.03;;;11.69;100.00
29935;BME280;19905;53.370;-6.314;2022-07-04T04:54:25;101628.88;;;11.67;100.00
29935;BME280;19905;53.370;-6.314;2022-07-04T04:56:54;101626.03;;;11.70;100.00
29935;BME280;19905;53.370;-6.314;2022-07-04T04:59:25;101635.09;;;11.66;100.00
29935;BME280;19905;53.370;-6.314;2022-07-04T05:01:53;101636.38;;;11.61;100.00
29935;BME280;19905;53.370;-6.314;2022-07-04T05:04:22;101637.31;;;11.60;100.00
29935;BME280;19905;53.370;-6.314;2022-07-04T05:06:51;101649.06;;;11.56;100.00
29935;BME280;19905;53.370;-6.314;2022-07-04T05:09:20;101654.13;;;11.59;100.00
29935;BME280;19905;53.370;-6.314;2022-07-04T05:11:49;101658.94;;;11.66;100.00
29935;BME280;19905;53.370;-6.314;2022-07-04T05:14:18;101658.50;;;11.60;100.00
29935;BME280;19905;53.370;-6.314;2022-07-04T05:16:50;101658.38;;;11.61;100.00
29935;BME280;19905;53.370;-6.314;2022-07-04T05:19:18;101663.06;;;11.70;100.00
29935;BME280;19905;53.370;-6.314;2022-07-04T05:21:49;101653.13;;;11.74;100.00
29935;BME280;19905;53.370;-6.314;2022-07-04T05:24:18;101649.06;;;11.83;100.00
29935;BME280;19905;53.370;-6.314;2022-07-04T05:26:46;101656.06;;;11.84;100.00
29935;BME280;19905;53.370;-6.314;2022-07-04T05:29:15;101656.06;;;11.84;100.00
29935;BME280;19905;53.370;-6.314;2022-07-04T05:31:44;101643.34;;;11.89;100.00
29935;BME280;19905;53.370;-6.314;2022-07-04T05:34:14;101641.03;;;11.97;100.00
29935;BME280;19905;53.370;-6.314;2022-07-04T05:36:44;101634.78;;;11.98;100.00
29935;BME280;19905;53.370;-6.314;2022-07-04T05:39:13;101635.44;;;12.02;100.00
29935;BME280;19905;53.370;-6.314;2022-07-04T05:41:41;101630.88;;;12.04;100.00
29935;BME280;19905;53.370;-6.314;2022-07-04T05:44:10;101645.19;;;12.01;100.00
29935;BME280;19905;53.370;-6.314;2022-07-04T05:46:38;101635.00;;;12.08;100.00
29935;BME280;19905;53.370;-6.314;2022-07-04T05:49:07;101636.47;;;11.99;100.00
29935;BME280;19905;53.370;-6.314;2022-07-04T05:51:37;101632.56;;;12.05;100.00
29935;BME280;19905;53.370;-6.314;2022-07-04T05:54:06;101640.13;;;12.11;100.00
29935;BME280;19905;53.370;-6.314;2022-07-04T05:56:36;101637.22;;;12.14;100.00
29935;BME280;19905;53.370;-6.314;2022-07-04T05:59:09;101652.81;;;12.18;100.00
29935;BME280;19905;53.370;-6.314;2022-07-04T06:01:39;101641.72;;;12.26;100.00
29935;BME280;19905;53.370;-6.314;2022-07-04T06:04:08;101643.00;;;12.33;100.00
29935;BME280;19905;53.370;-6.314;2022-07-04T06:06:39;101643.00;;;12.33;100.00
29935;BME280;19905;53.370;-6.314;2022-07-04T06:09:08;101649.34;;;12.43;100.00
29935;BME280;19905;53.370;-6.314;2022-07-04T06:11:44;101647.41;;;12.45;100.00
29935;BME280;19905;53.370;-6.314;2022-07-04T06:14:13;101650.00;;;12.47;100.00
29935;BME280;19905;53.370;-6.314;2022-07-04T06:16:41;101641.28;;;12.45;100.00
29935;BME280;19905;53.370;-6.314;2022-07-04T06:19:10;101638.44;;;12.48;100.00
29935;BME280;19905;53.370;-6.314;2022-07-04T06:21:40;101638.09;;;12.53;100.00
29935;BME280;19905;53.370;-6.314;2022-07-04T06:24:09;101634.28;;;12.57;100.00
29935;BME280;19905;53.370;-6.314;2022-07-04T06:26:38;101637.47;;;12.62;100.00
29935;BME280;19905;53.370;-6.314;2022-07-04T06:29:07;101643.50;;;12.64;100.00
29935;BME280;19905;53.370;-6.314;2022-07-04T06:31:36;101630.03;;;12.67;100.00
29935;BME280;19905;53.370;-6.314;2022-07-04T06:34:04;101633.31;;;12.70;100.00
29935;BME280;19905;53.370;-6.314;2022-07-04T06:36:55;101639.69;;;12.68;100.00
29935;BME280;19905;53.370;-6.314;2022-07-04T06:39:24;101644.00;;;12.69;100.00
29935;BME280;19905;53.370;-6.314;2022-07-04T06:41:52;101644.66;;;12.72;100.00
29935;BME280;19905;53.370;-6.314;2022-07-04T06:44:21;101646.56;;;12.70;100.00
29935;BME280;19905;53.370;-6.314;2022-07-04T06:46:50;101646.00;;;12.78;100.00
29935;BME280;19905;53.370;-6.314;2022-07-04T06:49:18;101644.13;;;12.80;100.00
29935;BME280;19905;53.370;-6.314;2022-07-04T06:51:47;101645.03;;;12.92;100.00
29935;BME280;19905;53.370;-6.314;2022-07-04T06:54:17;101651.41;;;12.89;100.00
29935;BME280;19905;53.370;-6.314;2022-07-04T06:56:48;101659.88;;;12.94;100.00
29935;BME280;19905;53.370;-6.314;2022-07-04T06:59:38;101660.22;;;12.90;100.00
29935;BME280;19905;53.370;-6.314;2022-07-04T07:02:07;101669.34;;;12.86;100.00
29935;BME280;19905;53.370;-6.314;2022-07-04T07:04:36;101661.91;;;12.91;100.00
29935;BME280;19905;53.370;-6.314;2022-07-04T07:07:05;101669.34;;;12.86;100.00
29935;BME280;19905;53.370;-6.314;2022-07-04T07:09:35;101667.53;;;12.86;100.00
29935;BME280;19905;53.370;-6.314;2022-07-04T07:12:04;101671.13;;;12.98;100.00
29935;BME280;19905;53.370;-6.314;2022-07-04T07:14:32;101654.56;;;13.07;100.00
29935;BME280;19905;53.370;-6.314;2022-07-04T07:17:01;101655.94;;;13.13;100.00
29935;BME280;19905;53.370;-6.314;2022-07-04T07:19:30;101659.75;;;13.09;100.00
29935;BME280;19905;53.370;-6.314;2022-07-04T07:22:01;101667.81;;;13.07;100.00
29935;BME280;19905;53.370;-6.314;2022-07-04T07:24:34;101663.88;;;13.13;100.00
29935;BME280;19905;53.370;-6.314;2022-07-04T07:27:05;101674.44;;;13.02;100.00
29935;BME280;19905;53.370;-6.314;2022-07-04T07:29:35;101672.81;;;12.99;100.00
29935;BME280;19905;53.370;-6.314;2022-07-04T07:32:04;101701.59;;;12.80;100.00
29935;BME280;19905;53.370;-6.314;2022-07-04T07:34:34;101704.69;;;12.61;100.00
29935;BME280;19905;53.370;-6.314;2022-07-04T07:37:03;101706.34;;;12.36;100.00
29935;BME280;19905;53.370;-6.314;2022-07-04T07:39:32;101718.81;;;12.09;100.00
29935;BME280;19905;53.370;-6.314;2022-07-04T07:42:10;101735.09;;;12.03;100.00
29935;BME280;19905;53.370;-6.314;2022-07-04T07:44:38;101726.00;;;11.80;100.00
29935;BME280;19905;53.370;-6.314;2022-07-04T07:47:07;101734.63;;;11.83;100.00
29935;BME280;19905;53.370;-6.314;2022-07-04T07:49:40;101736.75;;;11.91;100.00
29935;BME280;19905;53.370;-6.314;2022-07-04T07:52:09;101730.00;;;12.00;100.00
29935;BME280;19905;53.370;-6.314;2022-07-04T07:54:38;101741.19;;;12.17;100.00
29935;BME280;19905;53.370;-6.314;2022-07-04T07:57:27;101734.00;;;12.32;100.00
29935;BME280;19905;53.370;-6.314;2022-07-04T07:59:55;101732.97;;;12.48;100.00
29935;BME280;19905;53.370;-6.314;2022-07-04T08:02:24;101729.38;;;12.61;100.00
29935;BME280;19905;53.370;-6.314;2022-07-04T08:05:07;101721.66;;;12.84;100.00
29935;BME280;19905;53.370;-6.314;2022-07-04T08:07:36;101727.69;;;12.98;100.00
29935;BME280;19905;53.370;-6.314;2022-07-04T08:10:06;101712.16;;;13.05;100.00
29935;BME280;19905;53.370;-6.314;2022-07-04T08:12:37;101709.50;;;13.31;100.00
29935;BME280;19905;53.370;-6.314;2022-07-04T08:15:06;101704.78;;;13.47;100.00
29935;BME280;19905;53.370;-6.314;2022-07-04T08:17:35;101709.53;;;13.55;100.00
29935;BME280;19905;53.370;-6.314;2022-07-04T08:20:05;101698.91;;;13.55;100.00
29935;BME280;19905;53.370;-6.314;2022-07-04T08:22:33;101698.41;;;13.50;100.00
29935;BME280;19905;53.370;-6.314;2022-07-04T08:25:03;101699.03;;;13.53;100.00
29935;BME280;19905;53.370;-6.314;2022-07-04T08:27:31;101712.13;;;13.43;100.00
29935;BME280;19905;53.370;-6.314;2022-07-04T08:30:01;101714.53;;;13.46;100.00
29935;BME280;19905;53.370;-6.314;2022-07-04T08:32:31;101726.41;;;13.54;100.00
29935;BME280;19905;53.370;-6.314;2022-07-04T08:35:01;101732.66;;;13.65;100.00
29935;BME280;19905;53.370;-6.314;2022-07-04T08:37:29;101736.53;;;13.96;100.00
29935;BME280;19905;53.370;-6.314;2022-07-04T08:39:58;101722.22;;;14.10;100.00
29935;BME280;19905;53.370;-6.314;2022-07-04T08:42:29;101713.41;;;14.10;100.00
29935;BME280;19905;53.370;-6.314;2022-07-04T08:45:06;101711.78;;;14.31;100.00
29935;BME280;19905;53.370;-6.314;2022-07-04T08:47:35;101708.44;;;14.40;100.00
29935;BME280;19905;53.370;-6.314;2022-07-04T08:50:08;101705.34;;;14.22;100.00
29935;BME280;19905;53.370;-6.314;2022-07-04T08:52:39;101697.59;;;14.08;100.00
29935;BME280;19905;53.370;-6.314;2022-07-04T08:55:09;101700.97;;;14.10;100.00
29935;BME280;19905;53.370;-6.314;2022-07-04T08:57:57;101694.66;;;14.35;100.00
29935;BME280;19905;53.370;-6.314;2022-07-04T09:00:45;101696.09;;;14.39;100.00
29935;BME280;19905;53.370;-6.314;2022-07-04T09:03:14;101689.59;;;14.43;100.00
29935;BME280;19905;53.370;-6.314;2022-07-04T09:05:44;101690.81;;;14.51;100.00
29935;BME280;19905;53.370;-6.314;2022-07-04T09:08:13;101696.59;;;14.44;100.00
29935;BME280;19905;53.370;-6.314;2022-07-04T09:10:41;101698.00;;;14.26;100.00
29935;BME280;19905;53.370;-6.314;2022-07-04T09:13:11;101697.72;;;14.18;100.00
29935;BME280;19905;53.370;-6.314;2022-07-04T09:15:43;101713.31;;;14.22;100.00
29935;BME280;19905;53.370;-6.314;2022-07-04T09:18:24;101701.88;;;14.33;100.00
29935;BME280;19905;53.370;-6.314;2022-07-04T09:20:54;101695.13;;;14.40;100.00
29935;BME280;19905;53.370;-6.314;2022-07-04T09:23:25;101691.00;;;14.36;100.00
29935;BME280;19905;53.370;-6.314;2022-07-04T09:26:12;101696.34;;;14.36;100.00
29935;BME280;19905;53.370;-6.314;2022-07-04T09:28:42;101698.09;;;14.48;100.00
29935;BME280;19905;53.370;-6.314;2022-07-04T09:31:18;101697.50;;;14.21;100.00
29935;BME280;19905;53.370;-6.314;2022-07-04T09:33:51;101708.59;;;14.15;100.00
29935;BME280;19905;53.370;-6.314;2022-07-04T09:36:21;101705.47;;;14.21;100.00
29935;BME280;19905;53.370;-6.314;2022-07-04T09:39:08;101706.13;;;14.36;100.00
29935;BME280;19905;53.370;-6.314;2022-07-04T09:41:57;101692.97;;;14.45;100.00
29935;BME280;19905;53.370;-6.314;2022-07-04T09:44:28;101686.88;;;14.67;100.00
29935;BME280;19905;53.370;-6.314;2022-07-04T09:46:56;101693.03;;;14.90;100.00
29935;BME280;19905;53.370;-6.314;2022-07-04T09:49:26;101697.13;;;15.06;100.00
29935;BME280;19905;53.370;-6.314;2022-07-04T09:51:56;101686.97;;;15.11;100.00
29935;BME280;19905;53.370;-6.314;2022-07-04T09:54:26;101708.75;;;14.93;100.00
29935;BME280;19905;53.370;-6.314;2022-07-04T09:57:01;101713.22;;;14.82;100.00
29935;BME280;19905;53.370;-6.314;2022-07-04T09:59:30;101698.59;;;14.87;100.00
29935;BME280;19905;53.370;-6.314;2022-07-04T10:02:08;101703.91;;;14.87;100.00
29935;BME280;19905;53.370;-6.314;2022-07-04T10:04:49;101701.13;;;14.66;100.00
29935;BME280;19905;53.370;-6.314;2022-07-04T10:07:32;101706.47;;;14.66;100.00
29935;BME280;19905;53.370;-6.314;2022-07-04T10:10:28;101719.38;;;14.60;100.00
29935;BME280;19905;53.370;-6.314;2022-07-04T10:12:59;101719.63;;;14.68;100.00
29935;BME280;19905;53.370;-6.314;2022-07-04T10:15:29;101725.19;;;14.76;100.00
29935;BME280;19905;53.370;-6.314;2022-07-04T10:17:58;101724.84;;;14.81;100.00
29935;BME280;19905;53.370;-6.314;2022-07-04T10:20:29;101725.69;;;14.81;100.00
29935;BME280;19905;53.370;-6.314;2022-07-04T10:22:58;101727.50;;;15.03;100.00
29935;BME280;19905;53.370;-6.314;2022-07-04T10:25:29;101722.78;;;14.95;100.00
29935;BME280;19905;53.370;-6.314;2022-07-04T10:27:57;101731.13;;;14.91;100.00
29935;BME280;19905;53.370;-6.314;2022-07-04T10:30:27;101736.81;;;14.97;100.00
29935;BME280;19905;53.370;-6.314;2022-07-04T10:33:01;101736.56;;;15.00;100.00
29935;BME280;19905;53.370;-6.314;2022-07-04T10:35:50;101733.31;;;14.86;100.00
29935;BME280;19905;53.370;-6.314;2022-07-04T10:38:22;101742.50;;;15.04;100.00
29935;BME280;19905;53.370;-6.314;2022-07-04T10:40:52;101739.47;;;14.86;100.00
29935;BME280;19905;53.370;-6.314;2022-07-04T10:46:37;101738.50;;;15.32;100.00
29935;BME280;19905;53.370;-6.314;2022-07-04T10:49:21;101736.06;;;15.29;100.00
29935;BME280;19905;53.370;-6.314;2022-07-04T10:51:54;101740.81;;;15.14;100.00
29935;BME280;19905;53.370;-6.314;2022-07-04T10:54:29;101742.84;;;15.33;100.00
29935;BME280;19905;53.370;-6.314;2022-07-04T10:57:10;101741.03;;;15.34;100.00
29935;BME280;19905;53.370;-6.314;2022-07-04T10:59:40;101743.69;;;15.45;100.00
29935;BME280;19905;53.370;-6.314;2022-07-04T11:02:28;101739.69;;;15.50;100.00
29935;BME280;19905;53.370;-6.314;2022-07-04T11:04:59;101742.25;;;15.41;100.00
29935;BME280;19905;53.370;-6.314;2022-07-04T11:07:59;101745.47;;;15.56;100.00
29935;BME280;19905;53.370;-6.314;2022-07-04T11:10:37;101750.56;;;15.59;100.00
29935;BME280;19905;53.370;-6.314;2022-07-04T11:13:21;101744.97;;;15.62;100.00
29935;BME280;19905;53.370;-6.314;2022-07-04T11:16:05;101750.66;;;15.80;100.00
29935;BME280;19905;53.370;-6.314;2022-07-04T11:18:42;101762.72;;;15.95;100.00
29935;BME280;19905;53.370;-6.314;2022-07-04T11:21:21;101758.16;;;15.74;100.00
29935;BME280;19905;53.370;-6.314;2022-07-04T11:23:53;101763.16;;;15.45;100.00
29935;BME280;19905;53.370;-6.314;2022-07-04T11:26:23;101758.78;;;15.56;100.00
29935;BME280;19905;53.370;-6.314;2022-07-04T11:28:52;101759.03;;;15.52;100.00
29935;BME280;19905;53.370;-6.314;2022-07-04T11:31:21;101768.84;;;15.63;100.00
29935;BME280;19905;53.370;-6.314;2022-07-04T11:34:02;101771.22;;;16.21;100.00
29935;BME280;19905;53.370;-6.314;2022-07-04T11:36:31;101761.69;;;16.07;100.00
29935;BME280;19905;53.370;-6.314;2022-07-04T11:39:02;101769.38;;;16.00;100.00
29935;BME280;19905;53.370;-6.314;2022-07-04T11:41:32;101772.41;;;15.96;100.00
29935;BME280;19905;53.370;-6.314;2022-07-04T11:44:28;101765.56;;;15.60;100.00
29935;BME280;19905;53.370;-6.314;2022-07-04T11:47:15;101775.38;;;15.59;100.00
29935;BME280;19905;53.370;-6.314;2022-07-04T11:49:48;101777.56;;;15.54;100.00
29935;BME280;19905;53.370;-6.314;2022-07-04T11:52:18;101769.22;;;15.59;100.00
29935;BME280;19905;53.370;-6.314;2022-07-04T11:55:10;101784.22;;;15.71;100.00
29935;BME280;19905;53.370;-6.314;2022-07-04T11:57:41;101768.16;;;15.93;100.00
29935;BME280;19905;53.370;-6.314;2022-07-04T12:00:14;101779.19;;;15.89;100.00
29935;BME280;19905;53.370;-6.314;2022-07-04T12:02:44;101770.38;;;15.88;100.00
29935;BME280;19905;53.370;-6.314;2022-07-04T12:05:15;101777.03;;;15.83;100.00
29935;BME280;19905;53.370;-6.314;2022-07-04T12:07:44;101775.22;;;15.83;100.00
29935;BME280;19905;53.370;-6.314;2022-07-04T12:10:36;101773.88;;;15.89;100.00
29935;BME280;19905;53.370;-6.314;2022-07-04T12:13:06;101781.94;;;16.10;100.00
29935;BME280;19905;53.370;-6.314;2022-07-04T12:15:38;101778.88;;;16.14;100.00
29935;BME280;19905;53.370;-6.314;2022-07-04T12:18:15;101780.34;;;16.07;100.00
29935;BME280;19905;53.370;-6.314;2022-07-04T12:20:45;101783.97;;;16.17;100.00
29935;BME280;19905;53.370;-6.314;2022-07-04T12:23:14;101779.59;;;16.16;100.00
29935;BME280;19905;53.370;-6.314;2022-07-04T12:25:47;101772.34;;;16.18;100.00
29935;BME280;19905;53.370;-6.314;2022-07-04T12:28:17;101779.06;;;16.55;100.00
29935;BME280;19905;53.370;-6.314;2022-07-04T12:30:50;101769.75;;;16.49;100.00
29935;BME280;19905;53.370;-6.314;2022-07-04T12:33:21;101779.91;;;16.55;100.00
29935;BME280;19905;53.370;-6.314;2022-07-04T12:35:52;101775.75;;;16.41;100.00
29935;BME280;19905;53.370;-6.314;2022-07-04T12:38:29;101772.34;;;16.07;100.00
29935;BME280;19905;53.370;-6.314;2022-07-04T12:41:03;101783.47;;;16.12;100.00
29935;BME280;19905;53.370;-6.314;2022-07-04T12:43:45;101780.41;;;15.96;100.00
29935;BME280;19905;53.370;-6.314;2022-07-04T12:46:15;101785.50;;;15.99;100.00
29935;BME280;19905;53.370;-6.314;2022-07-04T12:48:54;101776.00;;;16.06;100.00
29935;BME280;19905;53.370;-6.314;2022-07-04T12:51:26;101786.25;;;16.22;100.00
29935;BME280;19905;53.370;-6.314;2022-07-04T12:53:57;101782.72;;;16.21;100.00
29935;BME280;19905;53.370;-6.314;2022-07-04T12:56:33;101778.34;;;16.32;100.00